sensor_id;sensor_type;location;lat;lon;timestamp;temperature;humidity
37456;DHT22;23316;50.718;7.328;2022-12-07T00:01:23;8.10;63.10
37456;DHT22;23316;50.718;7.328;2022-12-07T00:03:52;8.10;63.20
37456;DHT22;23316;50.718;7.328;2022-12-07T00:06:20;8.10;63.20
37456;DHT22;23316;50.718;7.328;2022-12-07T00:08:48;8.10;63.30
37456;DHT22;23316;50.718;7.328;2022-12-07T00:11:19;8.10;63.40
37456;DHT22;23316;50.718;7.328;2022-12-07T00:13:50;8.10;63.40
37456;DHT22;23316;50.718;7.328;2022-12-07T00:16:19;8.10;63.50
37456;DHT22;23316;50.718;7.328;2022-12-07T00:18:46;8.10;63.50
37456;DHT22;23316;50.718;7.328;2022-12-07T00:21:17;8.10;63.60
37456;DHT22;23316;50.718;7.328;2022-12-07T00:23:46;8.10;63.60
37456;DHT22;23316;50.718;7.328;2022-12-07T00:26:15;8.10;63.60
37456;DHT22;23316;50.718;7.328;2022-12-07T00:28:46;8.20;63.70
37456;DHT22;23316;50.718;7.328;2022-12-07T00:31:14;8.10;63.70
37456;DHT22;23316;50.718;7.328;2022-12-07T00:33:42;8.20;63.80
37456;DHT22;23316;50.718;7.328;2022-12-07T00:36:11;8.10;63.70
37456;DHT22;23316;50.718;7.328;2022-12-07T00:38:39;8.20;64.50
37456;DHT22;23316;50.718;7.328;2022-12-07T00:41:10;8.10;63.80
37456;DHT22;23316;50.718;7.328;2022-12-07T00:43:38;8.20;63.90
37456;DHT22;23316;50.718;7.328;2022-12-07T00:46:07;8.20;63.90
37456;DHT22;23316;50.718;7.328;2022-12-07T00:48:34;8.10;63.80
37456;DHT22;23316;50.718;7.328;2022-12-07T00:51:02;8.20;63.90
37456;DHT22;23316;50.718;7.328;2022-12-07T00:53:29;8.20;63.90
37456;DHT22;23316;50.718;7.328;2022-12-07T00:55:57;8.20;63.90
37456;DHT22;23316;50.718;7.328;2022-12-07T00:58:24;8.20;64.00
37456;DHT22;23316;50.718;7.328;2022-12-07T01:00:51;8.20;64.00
37456;DHT22;23316;50.718;7.328;2022-12-07T01:03:20;8.20;64.00
37456;DHT22;23316;50.718;7.328;2022-12-07T01:05:51;8.20;64.00
37456;DHT22;23316;50.718;7.328;2022-12-07T01:08:19;8.20;64.10
37456;DHT22;23316;50.718;7.328;2022-12-07T01:10:46;8.20;64.10
37456;DHT22;23316;50.718;7.328;2022-12-07T01:13:14;8.20;64.20
37456;DHT22;23316;50.718;7.328;2022-12-07T01:15:41;8.20;64.20
37456;DHT22;23316;50.718;7.328;2022-12-07T01:18:10;8.20;64.20
37456;DHT22;23316;50.718;7.328;2022-12-07T01:20:38;8.20;64.30
37456;DHT22;23316;50.718;7.328;2022-12-07T01:23:06;8.20;64.30
37456;DHT22;23316;50.718;7.328;2022-12-07T01:25:33;8.20;64.30
37456;DHT22;23316;50.718;7.328;2022-12-07T01:28:00;8.20;64.30
37456;DHT22;23316;50.718;7.328;2022-12-07T01:30:27;8.20;64.30
37456;DHT22;23316;50.718;7.328;2022-12-07T01:32:55;8.20;64.30
37456;DHT22;23316;50.718;7.328;2022-12-07T01:35:22;8.20;64.30
37456;DHT22;23316;50.718;7.328;2022-12-07T01:37:50;8.20;64.30
37456;DHT22;23316;50.718;7.328;2022-12-07T01:40:18;8.20;64.40
37456;DHT22;23316;50.718;7.328;2022-12-07T01:42:45;8.30;64.50
37456;DHT22;23316;50.718;7.328;2022-12-07T01:45:37;8.30;64.50
37456;DHT22;23316;50.718;7.328;2022-12-07T01:48:05;8.30;64.50
37456;DHT22;23316;50.718;7.328;2022-12-07T01:50:34;8.30;64.40
37456;DHT22;23316;50.718;7.328;2022-12-07T01:53:05;8.30;64.40
37456;DHT22;23316;50.718;7.328;2022-12-07T01:55:34;8.30;64.50
37456;DHT22;23316;50.718;7.328;2022-12-07T01:58:04;8.30;64.50
37456;DHT22;23316;50.718;7.328;2022-12-07T02:00:31;8.30;64.40
37456;DHT22;23316;50.718;7.328;2022-12-07T02:03:04;8.30;64.40
37456;DHT22;23316;50.718;7.328;2022-12-07T02:05:33;8.30;64.40
37456;DHT22;23316;50.718;7.328;2022-12-07T02:08:03;8.30;64.40
37456;DHT22;23316;50.718;7.328;2022-12-07T02:10:31;8.30;64.40
37456;DHT22;23316;50.718;7.328;2022-12-07T02:13:02;8.30;64.50
37456;DHT22;23316;50.718;7.328;2022-12-07T02:15:41;8.30;64.50
37456;DHT22;23316;50.718;7.328;2022-12-07T02:18:17;8.30;64.60
37456;DHT22;23316;50.718;7.328;2022-12-07T02:20:54;8.30;64.60
37456;DHT22;23316;50.718;7.328;2022-12-07T02:23:42;8.30;64.60
37456;DHT22;23316;50.718;7.328;2022-12-07T02:26:36;8.30;64.60
37456;DHT22;23316;50.718;7.328;2022-12-07T02:29:14;8.30;64.60
37456;DHT22;23316;50.718;7.328;2022-12-07T02:31:48;8.30;64.60
37456;DHT22;23316;50.718;7.328;2022-12-07T02:34:21;8.30;64.60
37456;DHT22;23316;50.718;7.328;2022-12-07T02:36:55;8.30;64.70
37456;DHT22;23316;50.718;7.328;2022-12-07T02:39:28;8.30;64.70
37456;DHT22;23316;50.718;7.328;2022-12-07T02:42:04;8.30;64.70
37456;DHT22;23316;50.718;7.328;2022-12-07T02:44:36;8.30;64.70
37456;DHT22;23316;50.718;7.328;2022-12-07T02:47:06;8.20;64.80
37456;DHT22;23316;50.718;7.328;2022-12-07T02:49:36;8.30;64.90
37456;DHT22;23316;50.718;7.328;2022-12-07T02:52:05;8.30;65.00
37456;DHT22;23316;50.718;7.328;2022-12-07T02:54:33;8.30;65.10
37456;DHT22;23316;50.718;7.328;2022-12-07T02:57:07;8.30;65.00
37456;DHT22;23316;50.718;7.328;2022-12-07T02:59:49;8.30;65.20
37456;DHT22;23316;50.718;7.328;2022-12-07T03:02:26;8.30;65.10
37456;DHT22;23316;50.718;7.328;2022-12-07T03:05:08;8.30;65.00
37456;DHT22;23316;50.718;7.328;2022-12-07T03:07:48;8.30;65.00
37456;DHT22;23316;50.718;7.328;2022-12-07T03:10:24;8.30;65.00
37456;DHT22;23316;50.718;7.328;2022-12-07T03:12:59;8.30;65.00
37456;DHT22;23316;50.718;7.328;2022-12-07T03:15:33;8.30;65.00
37456;DHT22;23316;50.718;7.328;2022-12-07T03:18:02;8.30;65.10
37456;DHT22;23316;50.718;7.328;2022-12-07T03:20:32;8.30;65.10
37456;DHT22;23316;50.718;7.328;2022-12-07T03:23:04;8.30;65.00
37456;DHT22;23316;50.718;7.328;2022-12-07T03:25:34;8.30;65.10
37456;DHT22;23316;50.718;7.328;2022-12-07T03:28:04;8.40;65.20
37456;DHT22;23316;50.718;7.328;2022-12-07T03:30:39;8.40;65.10
37456;DHT22;23316;50.718;7.328;2022-12-07T03:33:12;8.40;65.20
37456;DHT22;23316;50.718;7.328;2022-12-07T03:35:42;8.40;65.20
37456;DHT22;23316;50.718;7.328;2022-12-07T03:38:16;8.40;65.10
37456;DHT22;23316;50.718;7.328;2022-12-07T03:40:48;8.40;65.10
37456;DHT22;23316;50.718;7.328;2022-12-07T03:43:17;8.40;65.00
37456;DHT22;23316;50.718;7.328;2022-12-07T03:45:56;8.40;65.00
37456;DHT22;23316;50.718;7.328;2022-12-07T03:48:30;8.40;65.70
37456;DHT22;23316;50.718;7.328;2022-12-07T03:51:03;8.40;65.00
37456;DHT22;23316;50.718;7.328;2022-12-07T03:53:34;8.40;65.00
37456;DHT22;23316;50.718;7.328;2022-12-07T03:56:02;8.50;65.20
37456;DHT22;23316;50.718;7.328;2022-12-07T03:58:30;8.50;64.90
37456;DHT22;23316;50.718;7.328;2022-12-07T04:00:59;8.50;64.90
37456;DHT22;23316;50.718;7.328;2022-12-07T04:03:26;8.50;65.00
37456;DHT22;23316;50.718;7.328;2022-12-07T04:05:54;8.40;65.10
37456;DHT22;23316;50.718;7.328;2022-12-07T04:08:21;8.50;65.10
37456;DHT22;23316;50.718;7.328;2022-12-07T04:10:48;8.50;65.10
37456;DHT22;23316;50.718;7.328;2022-12-07T04:13:16;8.50;65.10
37456;DHT22;23316;50.718;7.328;2022-12-07T04:15:43;8.50;65.10
37456;DHT22;23316;50.718;7.328;2022-12-07T04:18:12;8.50;65.10
37456;DHT22;23316;50.718;7.328;2022-12-07T04:20:39;8.40;65.10
37456;DHT22;23316;50.718;7.328;2022-12-07T04:23:07;8.40;65.10
37456;DHT22;23316;50.718;7.328;2022-12-07T04:25:34;8.40;65.20
37456;DHT22;23316;50.718;7.328;2022-12-07T04:28:01;8.40;65.20
37456;DHT22;23316;50.718;7.328;2022-12-07T04:30:28;8.40;65.30
37456;DHT22;23316;50.718;7.328;2022-12-07T04:32:56;8.30;65.30
37456;DHT22;23316;50.718;7.328;2022-12-07T04:35:24;8.30;65.50
37456;DHT22;23316;50.718;7.328;2022-12-07T04:37:51;8.30;65.60
37456;DHT22;23316;50.718;7.328;2022-12-07T04:40:19;8.30;65.60
37456;DHT22;23316;50.718;7.328;2022-12-07T04:42:46;8.30;65.70
37456;DHT22;23316;50.718;7.328;2022-12-07T04:45:13;8.20;65.80
37456;DHT22;23316;50.718;7.328;2022-12-07T04:47:40;8.20;65.90
37456;DHT22;23316;50.718;7.328;2022-12-07T04:50:09;8.20;65.90
37456;DHT22;23316;50.718;7.328;2022-12-07T04:52:38;8.20;66.00
37456;DHT22;23316;50.718;7.328;2022-12-07T04:55:06;8.20;66.10
37456;DHT22;23316;50.718;7.328;2022-12-07T04:57:33;8.20;66.10
37456;DHT22;23316;50.718;7.328;2022-12-07T05:00:01;8.20;66.20
37456;DHT22;23316;50.718;7.328;2022-12-07T05:02:28;8.20;66.30
37456;DHT22;23316;50.718;7.328;2022-12-07T05:04:55;8.20;66.30
37456;DHT22;23316;50.718;7.328;2022-12-07T05:07:22;8.20;66.40
37456;DHT22;23316;50.718;7.328;2022-12-07T05:09:51;8.10;66.50
37456;DHT22;23316;50.718;7.328;2022-12-07T05:12:18;8.10;66.50
37456;DHT22;23316;50.718;7.328;2022-12-07T05:14:45;8.20;66.60
37456;DHT22;23316;50.718;7.328;2022-12-07T05:17:13;8.10;66.60
37456;DHT22;23316;50.718;7.328;2022-12-07T05:19:40;8.10;66.60
37456;DHT22;23316;50.718;7.328;2022-12-07T05:22:07;8.10;66.50
37456;DHT22;23316;50.718;7.328;2022-12-07T05:24:35;8.10;66.50
37456;DHT22;23316;50.718;7.328;2022-12-07T05:27:04;8.10;66.50
37456;DHT22;23316;50.718;7.328;2022-12-07T05:29:31;8.10;66.50
37456;DHT22;23316;50.718;7.328;2022-12-07T05:31:58;8.10;66.60
37456;DHT22;23316;50.718;7.328;2022-12-07T05:34:26;8.10;66.80
37456;DHT22;23316;50.718;7.328;2022-12-07T05:36:53;8.10;66.90
37456;DHT22;23316;50.718;7.328;2022-12-07T05:39:20;8.10;66.80
37456;DHT22;23316;50.718;7.328;2022-12-07T05:41:47;8.10;66.90
37456;DHT22;23316;50.718;7.328;2022-12-07T05:44:33;8.10;66.80
37456;DHT22;23316;50.718;7.328;2022-12-07T05:47:01;8.10;66.80
37456;DHT22;23316;50.718;7.328;2022-12-07T05:49:28;8.10;66.90
37456;DHT22;23316;50.718;7.328;2022-12-07T05:51:55;8.10;66.90
37456;DHT22;23316;50.718;7.328;2022-12-07T05:54:22;8.10;66.90
37456;DHT22;23316;50.718;7.328;2022-12-07T05:56:50;8.10;66.90
37456;DHT22;23316;50.718;7.328;2022-12-07T05:59:17;8.10;66.90
37456;DHT22;23316;50.718;7.328;2022-12-07T06:01:52;8.10;66.90
37456;DHT22;23316;50.718;7.328;2022-12-07T06:04:20;8.10;66.90
37456;DHT22;23316;50.718;7.328;2022-12-07T06:06:47;8.10;66.90
37456;DHT22;23316;50.718;7.328;2022-12-07T06:09:15;8.10;66.90
37456;DHT22;23316;50.718;7.328;2022-12-07T06:11:42;8.10;66.90
37456;DHT22;23316;50.718;7.328;2022-12-07T06:14:27;8.10;66.90
37456;DHT22;23316;50.718;7.328;2022-12-07T06:16:55;8.20;66.90
37456;DHT22;23316;50.718;7.328;2022-12-07T06:19:23;8.10;66.70
37456;DHT22;23316;50.718;7.328;2022-12-07T06:21:50;8.10;66.60
37456;DHT22;23316;50.718;7.328;2022-12-07T06:24:18;8.10;66.40
37456;DHT22;23316;50.718;7.328;2022-12-07T06:26:45;8.10;66.40
37456;DHT22;23316;50.718;7.328;2022-12-07T06:29:13;8.10;66.50
37456;DHT22;23316;50.718;7.328;2022-12-07T06:31:41;8.10;66.60
37456;DHT22;23316;50.718;7.328;2022-12-07T06:34:11;8.10;66.60
37456;DHT22;23316;50.718;7.328;2022-12-07T06:36:39;8.10;66.60
37456;DHT22;23316;50.718;7.328;2022-12-07T06:39:08;8.20;66.60
37456;DHT22;23316;50.718;7.328;2022-12-07T06:41:35;8.10;66.50
37456;DHT22;23316;50.718;7.328;2022-12-07T06:44:04;8.20;66.60
37456;DHT22;23316;50.718;7.328;2022-12-07T06:46:31;8.20;66.40
37456;DHT22;23316;50.718;7.328;2022-12-07T06:48:58;8.20;66.40
37456;DHT22;23316;50.718;7.328;2022-12-07T06:51:27;8.20;66.20
37456;DHT22;23316;50.718;7.328;2022-12-07T06:53:55;8.20;66.20
37456;DHT22;23316;50.718;7.328;2022-12-07T06:56:22;8.20;66.00
37456;DHT22;23316;50.718;7.328;2022-12-07T06:58:50;8.20;65.60
37456;DHT22;23316;50.718;7.328;2022-12-07T07:01:18;8.20;65.30
37456;DHT22;23316;50.718;7.328;2022-12-07T07:03:45;8.20;65.00
37456;DHT22;23316;50.718;7.328;2022-12-07T07:06:13;8.20;64.70
37456;DHT22;23316;50.718;7.328;2022-12-07T07:08:42;8.10;64.50
37456;DHT22;23316;50.718;7.328;2022-12-07T07:11:10;8.10;64.50
37456;DHT22;23316;50.718;7.328;2022-12-07T07:13:37;8.10;64.70
37456;DHT22;23316;50.718;7.328;2022-12-07T07:16:06;8.10;64.90
37456;DHT22;23316;50.718;7.328;2022-12-07T07:18:34;8.10;65.60
37456;DHT22;23316;50.718;7.328;2022-12-07T07:21:01;8.10;64.80
37456;DHT22;23316;50.718;7.328;2022-12-07T07:23:28;8.10;64.90
37456;DHT22;23316;50.718;7.328;2022-12-07T07:25:57;8.00;65.00
37456;DHT22;23316;50.718;7.328;2022-12-07T07:28:24;8.00;65.10
37456;DHT22;23316;50.718;7.328;2022-12-07T07:30:52;8.00;65.20
37456;DHT22;23316;50.718;7.328;2022-12-07T07:33:19;8.00;65.30
37456;DHT22;23316;50.718;7.328;2022-12-07T07:35:46;8.00;65.50
37456;DHT22;23316;50.718;7.328;2022-12-07T07:38:13;8.00;65.60
37456;DHT22;23316;50.718;7.328;2022-12-07T07:40:41;8.00;65.70
37456;DHT22;23316;50.718;7.328;2022-12-07T07:43:09;8.00;65.70
37456;DHT22;23316;50.718;7.328;2022-12-07T07:45:36;8.00;65.80
37456;DHT22;23316;50.718;7.328;2022-12-07T07:48:04;8.10;65.90
37456;DHT22;23316;50.718;7.328;2022-12-07T07:50:31;8.10;65.80
37456;DHT22;23316;50.718;7.328;2022-12-07T07:52:58;8.10;65.80
37456;DHT22;23316;50.718;7.328;2022-12-07T07:55:25;8.10;65.80
37456;DHT22;23316;50.718;7.328;2022-12-07T07:57:54;8.20;65.80
37456;DHT22;23316;50.718;7.328;2022-12-07T08:00:23;8.20;65.80
37456;DHT22;23316;50.718;7.328;2022-12-07T08:02:50;8.20;65.60
37456;DHT22;23316;50.718;7.328;2022-12-07T08:05:17;8.20;65.60
37456;DHT22;23316;50.718;7.328;2022-12-07T08:07:44;8.20;66.30
37456;DHT22;23316;50.718;7.328;2022-12-07T08:10:13;8.20;65.50
37456;DHT22;23316;50.718;7.328;2022-12-07T08:12:42;8.20;65.40
37456;DHT22;23316;50.718;7.328;2022-12-07T08:15:25;8.30;65.40
37456;DHT22;23316;50.718;7.328;2022-12-07T08:17:52;8.30;65.30
37456;DHT22;23316;50.718;7.328;2022-12-07T08:20:20;8.30;65.20
37456;DHT22;23316;50.718;7.328;2022-12-07T08:22:47;8.30;65.20
37456;DHT22;23316;50.718;7.328;2022-12-07T08:25:14;8.30;65.20
37456;DHT22;23316;50.718;7.328;2022-12-07T08:27:42;8.30;65.20
37456;DHT22;23316;50.718;7.328;2022-12-07T08:30:09;8.30;65.20
37456;DHT22;23316;50.718;7.328;2022-12-07T08:32:38;8.30;65.20
37456;DHT22;23316;50.718;7.328;2022-12-07T08:35:06;8.30;65.10
37456;DHT22;23316;50.718;7.328;2022-12-07T08:37:33;8.30;65.10
37456;DHT22;23316;50.718;7.328;2022-12-07T08:40:00;8.30;65.00
37456;DHT22;23316;50.718;7.328;2022-12-07T08:42:28;8.30;65.00
37456;DHT22;23316;50.718;7.328;2022-12-07T08:45:05;8.30;65.20
37456;DHT22;23316;50.718;7.328;2022-12-07T08:47:33;8.40;65.00
37456;DHT22;23316;50.718;7.328;2022-12-07T08:50:04;8.40;65.00
37456;DHT22;23316;50.718;7.328;2022-12-07T08:52:33;8.40;65.00
37456;DHT22;23316;50.718;7.328;2022-12-07T08:55:02;8.40;65.10
37456;DHT22;23316;50.718;7.328;2022-12-07T08:57:32;8.40;65.00
37456;DHT22;23316;50.718;7.328;2022-12-07T09:00:02;8.40;65.00
37456;DHT22;23316;50.718;7.328;2022-12-07T09:02:30;8.40;65.10
37456;DHT22;23316;50.718;7.328;2022-12-07T09:05:02;8.40;65.20
37456;DHT22;23316;50.718;7.328;2022-12-07T09:07:30;8.40;65.10
37456;DHT22;23316;50.718;7.328;2022-12-07T09:09:59;8.40;65.20
37456;DHT22;23316;50.718;7.328;2022-12-07T09:12:26;8.40;65.10
37456;DHT22;23316;50.718;7.328;2022-12-07T09:14:53;8.50;65.10
37456;DHT22;23316;50.718;7.328;2022-12-07T09:17:20;8.50;65.00
37456;DHT22;23316;50.718;7.328;2022-12-07T09:19:48;8.50;65.00
37456;DHT22;23316;50.718;7.328;2022-12-07T09:22:16;8.50;64.90
37456;DHT22;23316;50.718;7.328;2022-12-07T09:24:44;8.50;64.80
37456;DHT22;23316;50.718;7.328;2022-12-07T09:27:11;8.50;64.70
37456;DHT22;23316;50.718;7.328;2022-12-07T09:29:39;8.50;64.70
37456;DHT22;23316;50.718;7.328;2022-12-07T09:32:06;8.50;64.70
37456;DHT22;23316;50.718;7.328;2022-12-07T09:34:33;8.50;64.70
37456;DHT22;23316;50.718;7.328;2022-12-07T09:37:01;8.50;64.70
37456;DHT22;23316;50.718;7.328;2022-12-07T09:39:30;8.50;64.70
37456;DHT22;23316;50.718;7.328;2022-12-07T09:41:58;8.50;64.70
37456;DHT22;23316;50.718;7.328;2022-12-07T09:44:26;8.50;64.70
37456;DHT22;23316;50.718;7.328;2022-12-07T09:46:55;8.50;64.70
37456;DHT22;23316;50.718;7.328;2022-12-07T09:49:24;8.50;64.70
37456;DHT22;23316;50.718;7.328;2022-12-07T09:52:01;8.50;64.60
37456;DHT22;23316;50.718;7.328;2022-12-07T09:54:30;8.50;64.60
37456;DHT22;23316;50.718;7.328;2022-12-07T09:56:58;8.60;64.80
37456;DHT22;23316;50.718;7.328;2022-12-07T09:59:26;8.60;64.80
37456;DHT22;23316;50.718;7.328;2022-12-07T10:01:53;8.60;64.80
37456;DHT22;23316;50.718;7.328;2022-12-07T10:04:22;8.60;64.90
37456;DHT22;23316;50.718;7.328;2022-12-07T10:06:51;8.60;64.70
37456;DHT22;23316;50.718;7.328;2022-12-07T10:09:20;8.60;64.70
37456;DHT22;23316;50.718;7.328;2022-12-07T10:12:04;8.60;64.40
37456;DHT22;23316;50.718;7.328;2022-12-07T10:14:35;8.50;64.60
37456;DHT22;23316;50.718;7.328;2022-12-07T10:17:30;8.60;64.90
37456;DHT22;23316;50.718;7.328;2022-12-07T10:20:08;8.60;65.10
37456;DHT22;23316;50.718;7.328;2022-12-07T10:22:35;8.60;65.20
37456;DHT22;23316;50.718;7.328;2022-12-07T10:25:08;8.60;64.90
37456;DHT22;23316;50.718;7.328;2022-12-07T10:27:37;8.60;64.70
37456;DHT22;23316;50.718;7.328;2022-12-07T10:30:12;8.60;64.60
37456;DHT22;23316;50.718;7.328;2022-12-07T10:32:42;8.60;64.70
37456;DHT22;23316;50.718;7.328;2022-12-07T10:35:22;8.60;64.80
37456;DHT22;23316;50.718;7.328;2022-12-07T10:37:50;8.60;64.70
37456;DHT22;23316;50.718;7.328;2022-12-07T10:40:32;8.60;64.70
37456;DHT22;23316;50.718;7.328;2022-12-07T10:43:03;8.60;64.50
37456;DHT22;23316;50.718;7.328;2022-12-07T10:46:07;8.60;64.40
37456;DHT22;23316;50.718;7.328;2022-12-07T10:48:43;8.60;64.60
37456;DHT22;23316;50.718;7.328;2022-12-07T10:51:19;8.60;64.50
37456;DHT22;23316;50.718;7.328;2022-12-07T10:54:04;8.60;64.60
37456;DHT22;23316;50.718;7.328;2022-12-07T10:56:58;8.60;64.60
37456;DHT22;23316;50.718;7.328;2022-12-07T10:59:52;8.60;64.60
37456;DHT22;23316;50.718;7.328;2022-12-07T11:02:30;8.60;64.70
37456;DHT22;23316;50.718;7.328;2022-12-07T11:05:05;8.60;64.70
37456;DHT22;23316;50.718;7.328;2022-12-07T11:07:45;8.70;64.70
37456;DHT22;23316;50.718;7.328;2022-12-07T11:10:18;8.60;64.70
37456;DHT22;23316;50.718;7.328;2022-12-07T11:13:04;8.70;64.90
37456;DHT22;23316;50.718;7.328;2022-12-07T11:15:46;8.70;64.90
37456;DHT22;23316;50.718;7.328;2022-12-07T11:18:23;8.70;64.80
37456;DHT22;23316;50.718;7.328;2022-12-07T11:20:54;8.70;64.80
37456;DHT22;23316;50.718;7.328;2022-12-07T11:23:31;8.80;65.20
37456;DHT22;23316;50.718;7.328;2022-12-07T11:26:09;8.80;65.90
37456;DHT22;23316;50.718;7.328;2022-12-07T11:28:53;8.80;65.10
37456;DHT22;23316;50.718;7.328;2022-12-07T11:31:32;8.80;65.00
37456;DHT22;23316;50.718;7.328;2022-12-07T11:34:08;8.90;65.10
37456;DHT22;23316;50.718;7.328;2022-12-07T11:36:39;8.90;65.20
37456;DHT22;23316;50.718;7.328;2022-12-07T11:39:20;8.90;65.20
37456;DHT22;23316;50.718;7.328;2022-12-07T11:41:54;8.90;64.00
37456;DHT22;23316;50.718;7.328;2022-12-07T11:44:29;8.90;64.00
37456;DHT22;23316;50.718;7.328;2022-12-07T11:47:04;8.80;63.80
37456;DHT22;23316;50.718;7.328;2022-12-07T11:49:41;8.90;63.90
37456;DHT22;23316;50.718;7.328;2022-12-07T11:52:16;8.90;63.80
37456;DHT22;23316;50.718;7.328;2022-12-07T11:54:45;8.90;63.70
37456;DHT22;23316;50.718;7.328;2022-12-07T11:57:19;8.90;63.90
37456;DHT22;23316;50.718;7.328;2022-12-07T11:59:50;8.90;64.10
37456;DHT22;23316;50.718;7.328;2022-12-07T12:02:24;8.90;64.20
37456;DHT22;23316;50.718;7.328;2022-12-07T12:04:56;8.90;64.30
37456;DHT22;23316;50.718;7.328;2022-12-07T12:07:27;9.00;64.10
37456;DHT22;23316;50.718;7.328;2022-12-07T12:09:59;9.00;64.10
37456;DHT22;23316;50.718;7.328;2022-12-07T12:12:46;9.00;64.00
37456;DHT22;23316;50.718;7.328;2022-12-07T12:15:38;9.10;63.90
37456;DHT22;23316;50.718;7.328;2022-12-07T12:18:26;9.10;63.80
37456;DHT22;23316;50.718;7.328;2022-12-07T12:20:57;9.10;62.90
37456;DHT22;23316;50.718;7.328;2022-12-07T12:23:34;9.10;62.90
37456;DHT22;23316;50.718;7.328;2022-12-07T12:26:05;9.10;62.70
37456;DHT22;23316;50.718;7.328;2022-12-07T12:28:38;9.10;62.70
37456;DHT22;23316;50.718;7.328;2022-12-07T12:31:12;9.10;62.60
37456;DHT22;23316;50.718;7.328;2022-12-07T12:33:44;9.10;62.70
37456;DHT22;23316;50.718;7.328;2022-12-07T12:36:23;9.10;62.80
37456;DHT22;23316;50.718;7.328;2022-12-07T12:38:52;9.10;62.70
37456;DHT22;23316;50.718;7.328;2022-12-07T12:41:58;9.10;62.60
37456;DHT22;23316;50.718;7.328;2022-12-07T12:45:17;9.00;62.30
37456;DHT22;23316;50.718;7.328;2022-12-07T12:47:55;9.00;62.40
37456;DHT22;23316;50.718;7.328;2022-12-07T12:50:27;8.90;62.00
37456;DHT22;23316;50.718;7.328;2022-12-07T12:53:13;8.90;61.50
37456;DHT22;23316;50.718;7.328;2022-12-07T12:58:47;8.80;60.40
37456;DHT22;23316;50.718;7.328;2022-12-07T13:01:45;8.70;60.20
37456;DHT22;23316;50.718;7.328;2022-12-07T13:04:48;8.60;60.20
37456;DHT22;23316;50.718;7.328;2022-12-07T13:07:49;8.50;60.60
37456;DHT22;23316;50.718;7.328;2022-12-07T13:10:25;8.40;61.30
37456;DHT22;23316;50.718;7.328;2022-12-07T13:12:56;8.40;61.70
37456;DHT22;23316;50.718;7.328;2022-12-07T13:15:35;8.30;61.90
37456;DHT22;23316;50.718;7.328;2022-12-07T13:18:22;8.30;62.20
37456;DHT22;23316;50.718;7.328;2022-12-07T13:20:55;8.20;61.80
37456;DHT22;23316;50.718;7.328;2022-12-07T13:23:26;8.20;61.80
37456;DHT22;23316;50.718;7.328;2022-12-07T13:25:59;8.10;62.10
37456;DHT22;23316;50.718;7.328;2022-12-07T13:28:35;8.10;62.60
37456;DHT22;23316;50.718;7.328;2022-12-07T13:33:56;8.10;64.00
37456;DHT22;23316;50.718;7.328;2022-12-07T13:36:25;8.10;64.30
37456;DHT22;23316;50.718;7.328;2022-12-07T13:38:55;8.10;64.70
37456;DHT22;23316;50.718;7.328;2022-12-07T13:41:24;8.10;64.90
37456;DHT22;23316;50.718;7.328;2022-12-07T13:43:54;8.20;64.90
37456;DHT22;23316;50.718;7.328;2022-12-07T13:46:34;8.20;65.00
37456;DHT22;23316;50.718;7.328;2022-12-07T13:49:02;8.20;64.80
37456;DHT22;23316;50.718;7.328;2022-12-07T13:51:36;8.30;64.70
37456;DHT22;23316;50.718;7.328;2022-12-07T13:54:11;8.30;64.70
37456;DHT22;23316;50.718;7.328;2022-12-07T13:56:38;8.40;64.80
37456;DHT22;23316;50.718;7.328;2022-12-07T13:59:13;8.40;64.70
37456;DHT22;23316;50.718;7.328;2022-12-07T14:01:41;8.40;64.60
37456;DHT22;23316;50.718;7.328;2022-12-07T14:04:33;8.50;64.40
37456;DHT22;23316;50.718;7.328;2022-12-07T14:07:18;8.50;64.10
37456;DHT22;23316;50.718;7.328;2022-12-07T14:09:56;8.50;64.60
37456;DHT22;23316;50.718;7.328;2022-12-07T14:12:25;8.50;63.40
37456;DHT22;23316;50.718;7.328;2022-12-07T14:14:53;8.50;63.30
37456;DHT22;23316;50.718;7.328;2022-12-07T14:17:23;8.50;63.10
37456;DHT22;23316;50.718;7.328;2022-12-07T14:19:52;8.50;63.20
37456;DHT22;23316;50.718;7.328;2022-12-07T14:22:38;8.50;63.00
37456;DHT22;23316;50.718;7.328;2022-12-07T14:25:18;8.50;63.00
37456;DHT22;23316;50.718;7.328;2022-12-07T14:27:54;8.60;63.80
37456;DHT22;23316;50.718;7.328;2022-12-07T14:30:25;8.60;63.10
37456;DHT22;23316;50.718;7.328;2022-12-07T14:32:54;8.60;63.00
37456;DHT22;23316;50.718;7.328;2022-12-07T14:35:22;8.60;63.10
37456;DHT22;23316;50.718;7.328;2022-12-07T14:37:52;8.60;63.00
37456;DHT22;23316;50.718;7.328;2022-12-07T14:40:25;8.60;62.80
37456;DHT22;23316;50.718;7.328;2022-12-07T14:42:54;8.60;62.70
37456;DHT22;23316;50.718;7.328;2022-12-07T14:45:23;8.60;62.70
37456;DHT22;23316;50.718;7.328;2022-12-07T14:47:50;8.70;62.80
37456;DHT22;23316;50.718;7.328;2022-12-07T14:50:19;8.70;62.80
37456;DHT22;23316;50.718;7.328;2022-12-07T14:52:50;8.70;62.70
37456;DHT22;23316;50.718;7.328;2022-12-07T14:55:24;8.70;62.60
37456;DHT22;23316;50.718;7.328;2022-12-07T14:57:52;8.70;62.50
37456;DHT22;23316;50.718;7.328;2022-12-07T15:00:22;8.70;62.40
37456;DHT22;23316;50.718;7.328;2022-12-07T15:02:50;8.70;62.30
37456;DHT22;23316;50.718;7.328;2022-12-07T15:05:18;8.70;62.20
37456;DHT22;23316;50.718;7.328;2022-12-07T15:07:46;8.70;62.10
37456;DHT22;23316;50.718;7.328;2022-12-07T15:10:17;8.70;62.00
37456;DHT22;23316;50.718;7.328;2022-12-07T15:12:46;8.70;61.80
37456;DHT22;23316;50.718;7.328;2022-12-07T15:15:13;8.70;61.70
37456;DHT22;23316;50.718;7.328;2022-12-07T15:17:41;8.70;61.60
37456;DHT22;23316;50.718;7.328;2022-12-07T15:20:11;8.70;61.50
37456;DHT22;23316;50.718;7.328;2022-12-07T15:22:39;8.70;61.40
37456;DHT22;23316;50.718;7.328;2022-12-07T15:25:08;8.70;61.40
37456;DHT22;23316;50.718;7.328;2022-12-07T15:27:35;8.70;61.40
37456;DHT22;23316;50.718;7.328;2022-12-07T15:30:05;8.70;61.30
37456;DHT22;23316;50.718;7.328;2022-12-07T15:32:33;8.70;61.30
37456;DHT22;23316;50.718;7.328;2022-12-07T15:35:00;8.60;61.20
37456;DHT22;23316;50.718;7.328;2022-12-07T15:37:29;8.60;61.20
37456;DHT22;23316;50.718;7.328;2022-12-07T15:39:58;8.60;61.20
37456;DHT22;23316;50.718;7.328;2022-12-07T15:42:26;8.60;61.10
37456;DHT22;23316;50.718;7.328;2022-12-07T15:44:58;8.60;61.10
37456;DHT22;23316;50.718;7.328;2022-12-07T15:47:43;8.70;61.20
37456;DHT22;23316;50.718;7.328;2022-12-07T15:50:26;8.60;61.00
37456;DHT22;23316;50.718;7.328;2022-12-07T15:53:08;8.70;61.30
37456;DHT22;23316;50.718;7.328;2022-12-07T15:55:40;8.70;61.00
37456;DHT22;23316;50.718;7.328;2022-12-07T15:58:16;8.70;61.00
37456;DHT22;23316;50.718;7.328;2022-12-07T16:00:57;8.60;60.90
37456;DHT22;23316;50.718;7.328;2022-12-07T16:03:27;8.60;61.10
37456;DHT22;23316;50.718;7.328;2022-12-07T16:05:58;8.60;60.90
37456;DHT22;23316;50.718;7.328;2022-12-07T16:08:27;8.60;61.00
37456;DHT22;23316;50.718;7.328;2022-12-07T16:10:59;8.60;61.10
37456;DHT22;23316;50.718;7.328;2022-12-07T16:13:28;8.60;61.10
37456;DHT22;23316;50.718;7.328;2022-12-07T16:15:57;8.60;61.20
37456;DHT22;23316;50.718;7.328;2022-12-07T16:18:27;8.60;61.30